sensor_id;sensor_type;location;lat;lon;timestamp;pressure;altitude;pressure_sealevel;temperature;humidity
11268;BME280;49397;47.474;9.416;2022-09-09T00:01:30;95222.28;;;15.28;79.50
11268;BME280;49397;47.474;9.416;2022-09-09T00:03:40;95219.66;;;15.32;80.90
11268;BME280;49397;47.474;9.416;2022-09-09T00:08:45;95220.25;;;15.25;82.83
11268;BME280;49397;47.474;9.416;2022-09-09T00:11:24;95213.28;;;15.28;81.84
11268;BME280;49397;47.474;9.416;2022-09-09T00:13:53;95208.97;;;15.39;81.16
11268;BME280;49397;47.474;9.416;2022-09-09T00:16:24;95212.81;;;15.38;80.11
11268;BME280;49397;47.474;9.416;2022-09-09T00:21:39;95208.63;;;15.40;79.55
11268;BME280;49397;47.474;9.416;2022-09-09T00:27:01;95216.13;;;15.43;80.74
11268;BME280;49397;47.474;9.416;2022-09-09T00:32:15;95208.63;;;15.40;80.04
11268;BME280;49397;47.474;9.416;2022-09-09T00:34:48;95203.25;;;15.44;79.11
11268;BME280;49397;47.474;9.416;2022-09-09T00:37:15;95206.00;;;15.44;78.52
11268;BME280;49397;47.474;9.416;2022-09-09T00:39:43;95201.31;;;15.44;78.83
11268;BME280;49397;47.474;9.416;2022-09-09T00:42:21;95211.22;;;15.49;80.04
11268;BME280;49397;47.474;9.416;2022-09-09T00:47:45;95202.22;;;15.48;80.79
11268;BME280;49397;47.474;9.416;2022-09-09T00:52:56;95197.91;;;15.47;79.00
11268;BME280;49397;47.474;9.416;2022-09-09T00:58:07;95209.84;;;15.31;79.26
11268;BME280;49397;47.474;9.416;2022-09-09T01:00:53;95208.19;;;15.14;80.57
11268;BME280;49397;47.474;9.416;2022-09-09T01:06:16;95207.09;;;15.03;81.59
11268;BME280;49397;47.474;9.416;2022-09-09T01:09:00;95201.16;;;15.01;81.52
11268;BME280;49397;47.474;9.416;2022-09-09T01:11:37;95197.97;;;14.99;80.67
11268;BME280;49397;47.474;9.416;2022-09-09T01:16:56;95190.00;;;15.06;80.48
11268;BME280;49397;47.474;9.416;2022-09-09T01:19:37;95193.63;;;15.10;81.01
11268;BME280;49397;47.474;9.416;2022-09-09T01:27:35;95177.47;;;15.05;80.19
11268;BME280;49397;47.474;9.416;2022-09-09T01:30:08;95178.63;;;15.04;80.41
11268;BME280;49397;47.474;9.416;2022-09-09T01:35:03;95170.19;;;14.97;81.24
11268;BME280;49397;47.474;9.416;2022-09-09T01:37:29;95181.47;;;15.07;80.82
11268;BME280;49397;47.474;9.416;2022-09-09T01:39:54;95172.91;;;15.09;80.83
11268;BME280;49397;47.474;9.416;2022-09-09T01:42:20;95168.69;;;15.11;80.74
11268;BME280;49397;47.474;9.416;2022-09-09T01:44:45;95176.19;;;15.14;79.97
11268;BME280;49397;47.474;9.416;2022-09-09T01:47:11;95159.44;;;15.16;79.98
11268;BME280;49397;47.474;9.416;2022-09-09T01:49:36;95163.91;;;15.21;79.37
11268;BME280;49397;47.474;9.416;2022-09-09T01:52:02;95179.16;;;15.22;79.55
11268;BME280;49397;47.474;9.416;2022-09-09T01:54:30;95169.25;;;15.17;79.59
11268;BME280;49397;47.474;9.416;2022-09-09T01:57:11;95175.41;;;15.14;79.92
11268;BME280;49397;47.474;9.416;2022-09-09T02:05:25;95172.25;;;15.00;80.78
11268;BME280;49397;47.474;9.416;2022-09-09T02:08:20;95167.81;;;14.95;81.02
11268;BME280;49397;47.474;9.416;2022-09-09T02:11:08;95176.00;;;14.95;80.08
11268;BME280;49397;47.474;9.416;2022-09-09T02:13:38;95174.72;;;15.05;79.59
11268;BME280;49397;47.474;9.416;2022-09-09T02:18:57;95181.22;;;15.00;78.65
11268;BME280;49397;47.474;9.416;2022-09-09T02:21:28;95185.66;;;15.05;78.84
11268;BME280;49397;47.474;9.416;2022-09-09T02:23:56;95182.22;;;15.08;78.32
11268;BME280;49397;47.474;9.416;2022-09-09T02:26:23;95189.50;;;15.16;77.99
11268;BME280;49397;47.474;9.416;2022-09-09T02:28:50;95193.50;;;15.18;77.40
11268;BME280;49397;47.474;9.416;2022-09-09T02:31:19;95192.94;;;15.13;76.83
11268;BME280;49397;47.474;9.416;2022-09-09T02:33:49;95187.34;;;15.09;78.07
11268;BME280;49397;47.474;9.416;2022-09-09T02:36:18;95194.53;;;15.02;78.63
11268;BME280;49397;47.474;9.416;2022-09-09T02:38:46;95197.06;;;14.95;78.72
11268;BME280;49397;47.474;9.416;2022-09-09T02:41:24;95196.03;;;14.87;79.15
11268;BME280;49397;47.474;9.416;2022-09-09T02:43:51;95191.19;;;14.81;79.78
11268;BME280;49397;47.474;9.416;2022-09-09T02:46:29;95197.97;;;14.75;80.53
11268;BME280;49397;47.474;9.416;2022-09-09T02:49:08;95207.78;;;14.76;79.46
11268;BME280;49397;47.474;9.416;2022-09-09T02:52:16;95205.41;;;14.74;80.67
11268;BME280;49397;47.474;9.416;2022-09-09T02:54:44;95204.94;;;14.72;80.64
11268;BME280;49397;47.474;9.416;2022-09-09T02:57:13;95218.38;;;14.77;78.63
11268;BME280;49397;47.474;9.416;2022-09-09T02:59:43;95212.97;;;15.05;76.08
11268;BME280;49397;47.474;9.416;2022-09-09T03:02:09;95217.19;;;15.14;74.73
11268;BME280;49397;47.474;9.416;2022-09-09T03:04:39;95209.44;;;15.16;75.38
11268;BME280;49397;47.474;9.416;2022-09-09T03:07:05;95212.06;;;15.25;75.37
11268;BME280;49397;47.474;9.416;2022-09-09T03:09:31;95219.66;;;15.32;74.34
11268;BME280;49397;47.474;9.416;2022-09-09T03:11:58;95227.41;;;15.42;73.41
11268;BME280;49397;47.474;9.416;2022-09-09T03:14:24;95221.56;;;15.55;72.42
11268;BME280;49397;47.474;9.416;2022-09-09T03:16:51;95221.06;;;15.65;70.92
11268;BME280;49397;47.474;9.416;2022-09-09T03:19:17;95232.56;;;15.71;71.32
11268;BME280;49397;47.474;9.416;2022-09-09T03:21:44;95226.63;;;15.69;71.71
11268;BME280;49397;47.474;9.416;2022-09-09T03:24:10;95219.88;;;15.78;69.85
11268;BME280;49397;47.474;9.416;2022-09-09T03:26:36;95231.03;;;15.85;70.68
11268;BME280;49397;47.474;9.416;2022-09-09T03:29:03;95227.84;;;15.83;69.61
11268;BME280;49397;47.474;9.416;2022-09-09T03:31:32;95232.59;;;15.86;70.16
11268;BME280;49397;47.474;9.416;2022-09-09T03:33:58;95230.41;;;15.92;70.17
11268;BME280;49397;47.474;9.416;2022-09-09T03:36:25;95232.47;;;15.95;69.04
11268;BME280;49397;47.474;9.416;2022-09-09T03:38:52;95237.72;;;15.88;69.94
11268;BME280;49397;47.474;9.416;2022-09-09T03:41:17;95237.09;;;15.79;71.10
11268;BME280;49397;47.474;9.416;2022-09-09T03:43:43;95243.59;;;15.74;70.89
11268;BME280;49397;47.474;9.416;2022-09-09T03:46:09;95236.28;;;15.78;70.02
11268;BME280;49397;47.474;9.416;2022-09-09T03:48:35;95248.31;;;15.89;69.96
11268;BME280;49397;47.474;9.416;2022-09-09T03:51:00;95240.84;;;16.02;68.57
11268;BME280;49397;47.474;9.416;2022-09-09T03:53:27;95250.75;;;16.06;68.95
11268;BME280;49397;47.474;9.416;2022-09-09T03:55:54;95246.31;;;16.02;68.87
11268;BME280;49397;47.474;9.416;2022-09-09T03:58:22;95241.56;;;15.99;68.97
11268;BME280;49397;47.474;9.416;2022-09-09T04:00:56;95240.16;;;16.05;70.08
11268;BME280;49397;47.474;9.416;2022-09-09T04:03:23;95237.13;;;15.94;70.60
11268;BME280;49397;47.474;9.416;2022-09-09T04:05:53;95242.03;;;15.89;70.82
11268;BME280;49397;47.474;9.416;2022-09-09T04:08:19;95248.44;;;15.93;70.28
11268;BME280;49397;47.474;9.416;2022-09-09T04:10:46;95235.63;;;15.97;70.75
11268;BME280;49397;47.474;9.416;2022-09-09T04:13:13;95238.81;;;15.99;70.52
11268;BME280;49397;47.474;9.416;2022-09-09T04:15:41;95229.09;;;16.01;69.96
11268;BME280;49397;47.474;9.416;2022-09-09T04:18:07;95227.28;;;16.05;70.49
11268;BME280;49397;47.474;9.416;2022-09-09T04:20:33;95217.38;;;16.01;70.48
11268;BME280;49397;47.474;9.416;2022-09-09T04:22:58;95226.47;;;16.05;71.67
11268;BME280;49397;47.474;9.416;2022-09-09T04:25:24;95235.84;;;16.04;71.43
11268;BME280;49397;47.474;9.416;2022-09-09T04:27:54;95232.19;;;16.00;72.22
11268;BME280;49397;47.474;9.416;2022-09-09T04:30:20;95238.47;;;16.00;72.63
11268;BME280;49397;47.474;9.416;2022-09-09T04:32:46;95234.56;;;16.01;72.63
11268;BME280;49397;47.474;9.416;2022-09-09T04:35:12;95235.84;;;16.04;72.32
11268;BME280;49397;47.474;9.416;2022-09-09T04:37:37;95231.75;;;15.98;72.97
11268;BME280;49397;47.474;9.416;2022-09-09T04:40:03;95230.84;;;15.94;73.25
11268;BME280;49397;47.474;9.416;2022-09-09T04:42:29;95233.81;;;16.01;73.36
11268;BME280;49397;47.474;9.416;2022-09-09T04:44:54;95234.16;;;15.99;73.26
11268;BME280;49397;47.474;9.416;2022-09-09T04:47:20;95233.09;;;16.04;72.75
11268;BME280;49397;47.474;9.416;2022-09-09T04:49:45;95239.63;;;15.99;74.47
11268;BME280;49397;47.474;9.416;2022-09-09T04:52:11;95242.72;;;15.98;74.71
11268;BME280;49397;47.474;9.416;2022-09-09T04:54:36;95245.44;;;15.98;73.56
11268;BME280;49397;47.474;9.416;2022-09-09T04:57:02;95244.38;;;16.02;73.66
11268;BME280;49397;47.474;9.416;2022-09-09T04:59:28;95250.63;;;16.03;72.41
11268;BME280;49397;47.474;9.416;2022-09-09T05:01:53;95245.88;;;16.00;73.21
11268;BME280;49397;47.474;9.416;2022-09-09T05:04:20;95258.53;;;16.04;73.48
11268;BME280;49397;47.474;9.416;2022-09-09T05:06:46;95259.66;;;16.03;74.55
11268;BME280;49397;47.474;9.416;2022-09-09T05:09:11;95267.06;;;16.03;74.71
11268;BME280;49397;47.474;9.416;2022-09-09T05:11:37;95262.94;;;16.09;74.55
11268;BME280;49397;47.474;9.416;2022-09-09T05:14:04;95266.56;;;16.13;74.19
11268;BME280;49397;47.474;9.416;2022-09-09T05:16:30;95264.63;;;16.13;73.99
11268;BME280;49397;47.474;9.416;2022-09-09T05:18:56;95268.59;;;16.16;75.24
11268;BME280;49397;47.474;9.416;2022-09-09T05:21:23;95271.34;;;16.16;75.41
11268;BME280;49397;47.474;9.416;2022-09-09T05:23:49;95267.03;;;16.15;73.98
11268;BME280;49397;47.474;9.416;2022-09-09T05:26:18;95269.06;;;16.18;73.88
11268;BME280;49397;47.474;9.416;2022-09-09T05:28:44;95282.84;;;16.21;74.39
11268;BME280;49397;47.474;9.416;2022-09-09T05:31:11;95280.09;;;16.21;73.43
11268;BME280;49397;47.474;9.416;2022-09-09T05:33:39;95280.88;;;16.22;74.52
11268;BME280;49397;47.474;9.416;2022-09-09T05:36:10;95276.56;;;16.21;75.40
11268;BME280;49397;47.474;9.416;2022-09-09T05:38:39;95278.94;;;16.22;74.65
11268;BME280;49397;47.474;9.416;2022-09-09T05:41:04;95278.94;;;16.22;73.40
11268;BME280;49397;47.474;9.416;2022-09-09T05:43:31;95267.41;;;16.29;72.95
11268;BME280;49397;47.474;9.416;2022-09-09T05:46:03;95267.91;;;16.19;74.72
11268;BME280;49397;47.474;9.416;2022-09-09T05:48:37;95271.44;;;16.19;73.55
11268;BME280;49397;47.474;9.416;2022-09-09T05:51:04;95269.50;;;16.20;72.42
11268;BME280;49397;47.474;9.416;2022-09-09T05:53:30;95276.22;;;16.22;72.68
11268;BME280;49397;47.474;9.416;2022-09-09T05:56:07;95276.81;;;16.16;73.14
11268;BME280;49397;47.474;9.416;2022-09-09T05:58:36;95274.28;;;16.23;72.59
11268;BME280;49397;47.474;9.416;2022-09-09T06:01:06;95274.47;;;16.30;71.25
11268;BME280;49397;47.474;9.416;2022-09-09T06:03:34;95268.84;;;16.38;70.39
11268;BME280;49397;47.474;9.416;2022-09-09T06:06:06;95274.56;;;16.33;70.75
11268;BME280;49397;47.474;9.416;2022-09-09T06:08:36;95280.13;;;16.37;70.28
11268;BME280;49397;47.474;9.416;2022-09-09T06:11:10;95276.78;;;16.43;70.28
11268;BME280;49397;47.474;9.416;2022-09-09T06:13:37;95284.44;;;16.38;72.13
11268;BME280;49397;47.474;9.416;2022-09-09T06:16:05;95289.31;;;16.29;73.25
11268;BME280;49397;47.474;9.416;2022-09-09T06:18:32;95277.66;;;16.32;72.65
11268;BME280;49397;47.474;9.416;2022-09-09T06:23:26;95278.63;;;16.39;72.46
11268;BME280;49397;47.474;9.416;2022-09-09T06:26:22;95273.75;;;16.33;74.22
11268;BME280;49397;47.474;9.416;2022-09-09T06:28:47;95269.75;;;16.15;74.19
11268;BME280;49397;47.474;9.416;2022-09-09T06:31:15;95271.59;;;16.11;74.76
11268;BME280;49397;47.474;9.416;2022-09-09T06:33:43;95272.28;;;16.08;75.52
11268;BME280;49397;47.474;9.416;2022-09-09T06:36:20;95267.41;;;16.01;77.72
11268;BME280;49397;47.474;9.416;2022-09-09T06:38:47;95266.75;;;16.04;77.57
11268;BME280;49397;47.474;9.416;2022-09-09T06:41:15;95268.03;;;15.95;77.17
11268;BME280;49397;47.474;9.416;2022-09-09T06:43:41;95271.09;;;15.93;79.56
11268;BME280;49397;47.474;9.416;2022-09-09T06:46:12;95277.38;;;15.94;78.87
11268;BME280;49397;47.474;9.416;2022-09-09T06:48:39;95281.25;;;15.93;78.80
11268;BME280;49397;47.474;9.416;2022-09-09T06:53:32;95278.66;;;15.84;78.88
11268;BME280;49397;47.474;9.416;2022-09-09T06:56:03;95284.00;;;15.93;78.95
11268;BME280;49397;47.474;9.416;2022-09-09T06:58:42;95274.97;;;15.92;78.21
11268;BME280;49397;47.474;9.416;2022-09-09T07:01:11;95279.75;;;15.95;78.54
11268;BME280;49397;47.474;9.416;2022-09-09T07:03:41;95278.00;;;16.03;78.11
11268;BME280;49397;47.474;9.416;2022-09-09T07:06:14;95281.41;;;16.12;79.70
11268;BME280;49397;47.474;9.416;2022-09-09T07:08:40;95288.81;;;16.11;78.23
11268;BME280;49397;47.474;9.416;2022-09-09T07:11:08;95279.72;;;16.07;78.90
11268;BME280;49397;47.474;9.416;2022-09-09T07:13:34;95292.25;;;16.08;78.53
11268;BME280;49397;47.474;9.416;2022-09-09T07:16:10;95289.50;;;16.08;79.24
11268;BME280;49397;47.474;9.416;2022-09-09T07:18:36;95295.19;;;16.15;78.74
11268;BME280;49397;47.474;9.416;2022-09-09T07:21:04;95297.13;;;16.15;78.37
11268;BME280;49397;47.474;9.416;2022-09-09T07:23:30;95300.56;;;16.12;78.23
11268;BME280;49397;47.474;9.416;2022-09-09T07:25:57;95295.19;;;16.15;79.46
11268;BME280;49397;47.474;9.416;2022-09-09T07:28:23;95299.16;;;16.18;78.22
11268;BME280;49397;47.474;9.416;2022-09-09T07:30:59;95288.31;;;16.21;77.59
11268;BME280;49397;47.474;9.416;2022-09-09T07:33:27;95299.66;;;16.35;80.59
11268;BME280;49397;47.474;9.416;2022-09-09T07:36:06;95305.66;;;16.41;80.83
11268;BME280;49397;47.474;9.416;2022-09-09T07:38:37;95296.09;;;16.47;81.27
11268;BME280;49397;47.474;9.416;2022-09-09T07:41:11;95297.69;;;16.48;82.96
11268;BME280;49397;47.474;9.416;2022-09-09T07:43:42;95302.22;;;16.44;84.72
11268;BME280;49397;47.474;9.416;2022-09-09T07:46:09;95310.72;;;16.39;84.14
11268;BME280;49397;47.474;9.416;2022-09-09T07:48:34;95315.47;;;16.42;84.40
11268;BME280;49397;47.474;9.416;2022-09-09T07:51:21;95310.34;;;16.40;84.69
11268;BME280;49397;47.474;9.416;2022-09-09T07:53:48;95315.84;;;16.40;84.06
11268;BME280;49397;47.474;9.416;2022-09-09T07:56:17;95313.09;;;16.40;82.38
11268;BME280;49397;47.474;9.416;2022-09-09T07:58:45;95316.19;;;16.39;84.95
11268;BME280;49397;47.474;9.416;2022-09-09T08:01:20;95315.72;;;16.37;83.32
11268;BME280;49397;47.474;9.416;2022-09-09T08:03:47;95323.69;;;16.42;83.60
11268;BME280;49397;47.474;9.416;2022-09-09T08:06:13;95322.78;;;16.38;83.52
11268;BME280;49397;47.474;9.416;2022-09-09T08:08:39;95332.25;;;16.40;83.36
11268;BME280;49397;47.474;9.416;2022-09-09T08:11:12;95327.50;;;16.37;80.46
11268;BME280;49397;47.474;9.416;2022-09-09T08:13:40;95331.47;;;16.40;81.66
11268;BME280;49397;47.474;9.416;2022-09-09T08:16:15;95318.78;;;16.47;80.89
11268;BME280;49397;47.474;9.416;2022-09-09T08:18:41;95327.53;;;16.53;79.19
11268;BME280;49397;47.474;9.416;2022-09-09T08:21:08;95323.31;;;16.55;79.11
11268;BME280;49397;47.474;9.416;2022-09-09T08:23:35;95325.69;;;16.57;79.63
11268;BME280;49397;47.474;9.416;2022-09-09T08:26:13;95322.25;;;16.60;78.48
11268;BME280;49397;47.474;9.416;2022-09-09T08:28:40;95321.53;;;16.63;80.70
11268;BME280;49397;47.474;9.416;2022-09-09T08:31:23;95323.41;;;16.75;78.73
11268;BME280;49397;47.474;9.416;2022-09-09T08:33:50;95324.50;;;16.86;76.40
11268;BME280;49397;47.474;9.416;2022-09-09T08:36:18;95315.75;;;16.96;76.94
11268;BME280;49397;47.474;9.416;2022-09-09T08:38:50;95318.59;;;16.99;77.61
11268;BME280;49397;47.474;9.416;2022-09-09T08:44:07;95327.22;;;17.17;77.07
11268;BME280;49397;47.474;9.416;2022-09-09T08:52:39;95337.84;;;17.49;74.40
11268;BME280;49397;47.474;9.416;2022-09-09T08:55:25;95335.56;;;18.24;73.86
11268;BME280;49397;47.474;9.416;2022-09-09T08:57:54;95330.44;;;18.23;71.08
11268;BME280;49397;47.474;9.416;2022-09-09T09:00:20;95334.25;;;17.99;70.63
11268;BME280;49397;47.474;9.416;2022-09-09T09:10:40;95340.53;;;17.99;71.72
11268;BME280;49397;47.474;9.416;2022-09-09T09:13:14;95327.69;;;17.84;69.89
11268;BME280;49397;47.474;9.416;2022-09-09T09:15:41;95330.72;;;17.98;72.01
11268;BME280;49397;47.474;9.416;2022-09-09T09:18:11;95324.88;;;18.00;71.64
11268;BME280;49397;47.474;9.416;2022-09-09T09:20:48;95329.84;;;17.94;71.69
11268;BME280;49397;47.474;9.416;2022-09-09T09:23:25;95322.25;;;17.88;69.97
11268;BME280;49397;47.474;9.416;2022-09-09T09:25:58;95335.13;;;18.03;72.33
11268;BME280;49397;47.474;9.416;2022-09-09T09:28:27;95336.06;;;18.10;69.95
11268;BME280;49397;47.474;9.416;2022-09-09T09:31:09;95333.41;;;18.14;71.70
11268;BME280;49397;47.474;9.416;2022-09-09T09:33:50;95337.25;;;18.29;71.82
11268;BME280;49397;47.474;9.416;2022-09-09T09:36:18;95336.09;;;18.30;68.58
11268;BME280;49397;47.474;9.416;2022-09-09T09:41:49;95330.81;;;18.40;68.16
11268;BME280;49397;47.474;9.416;2022-09-09T09:44:24;95338.13;;;18.52;70.09
11268;BME280;49397;47.474;9.416;2022-09-09T09:46:50;95332.91;;;18.66;69.45
11268;BME280;49397;47.474;9.416;2022-09-09T09:49:16;95331.75;;;18.67;67.86
11268;BME280;49397;47.474;9.416;2022-09-09T09:51:42;95332.94;;;18.88;68.52
11268;BME280;49397;47.474;9.416;2022-09-09T09:54:18;95332.38;;;19.02;69.16
11268;BME280;49397;47.474;9.416;2022-09-09T09:56:48;95328.84;;;19.01;67.83
11268;BME280;49397;47.474;9.416;2022-09-09T10:01:49;95313.03;;;19.66;65.88
11268;BME280;49397;47.474;9.416;2022-09-09T10:04:21;95316.00;;;19.80;64.04
11268;BME280;49397;47.474;9.416;2022-09-09T10:06:49;95325.75;;;20.04;65.26
11268;BME280;49397;47.474;9.416;2022-09-09T10:09:24;95317.00;;;20.24;61.78
11268;BME280;49397;47.474;9.416;2022-09-09T10:17:39;95314.31;;;20.64;60.79
11268;BME280;49397;47.474;9.416;2022-09-09T10:22:35;95293.66;;;21.21;59.56
11268;BME280;49397;47.474;9.416;2022-09-09T10:31:01;95288.66;;;21.91;56.18
11268;BME280;49397;47.474;9.416;2022-09-09T10:36:21;95280.25;;;22.53;54.48
11268;BME280;49397;47.474;9.416;2022-09-09T10:41:44;95283.22;;;22.09;56.19
11268;BME280;49397;47.474;9.416;2022-09-09T10:47:49;95278.72;;;21.83;55.28
11268;BME280;49397;47.474;9.416;2022-09-09T10:55:14;95270.13;;;20.94;56.87
11268;BME280;49397;47.474;9.416;2022-09-09T10:57:48;95284.47;;;20.70;58.04
11268;BME280;49397;47.474;9.416;2022-09-09T11:00:22;95279.41;;;20.42;57.50
11268;BME280;49397;47.474;9.416;2022-09-09T11:02:55;95289.16;;;20.03;59.87
11268;BME280;49397;47.474;9.416;2022-09-09T11:05:41;95301.06;;;19.55;65.77
11268;BME280;49397;47.474;9.416;2022-09-09T11:08:23;95304.31;;;19.38;72.75
11268;BME280;49397;47.474;9.416;2022-09-09T11:11:15;95302.41;;;18.93;75.15
11268;BME280;49397;47.474;9.416;2022-09-09T11:13:57;95298.00;;;18.89;75.70
11268;BME280;49397;47.474;9.416;2022-09-09T11:16:29;95311.34;;;18.68;76.34
11268;BME280;49397;47.474;9.416;2022-09-09T11:19:00;95317.31;;;18.51;75.72
11268;BME280;49397;47.474;9.416;2022-09-09T11:21:32;95297.63;;;18.30;76.66
11268;BME280;49397;47.474;9.416;2022-09-09T11:26:51;95315.88;;;17.65;80.05
11268;BME280;49397;47.474;9.416;2022-09-09T11:30:39;95324.72;;;17.58;80.96
11268;BME280;49397;47.474;9.416;2022-09-09T11:40:36;95326.59;;;17.39;83.58
11268;BME280;49397;47.474;9.416;2022-09-09T11:43:11;95333.84;;;17.31;85.04
11268;BME280;49397;47.474;9.416;2022-09-09T11:45:40;95323.69;;;17.32;82.69
11268;BME280;49397;47.474;9.416;2022-09-09T11:48:22;95328.19;;;17.40;80.86
11268;BME280;49397;47.474;9.416;2022-09-09T11:50:58;95327.66;;;17.19;82.63
11268;BME280;49397;47.474;9.416;2022-09-09T11:53:23;95341.56;;;17.10;84.28
11268;BME280;49397;47.474;9.416;2022-09-09T11:56:04;95349.50;;;16.84;84.32
11268;BME280;49397;47.474;9.416;2022-09-09T11:58:41;95341.66;;;16.98;88.51
11268;BME280;49397;47.474;9.416;2022-09-09T12:01:27;95339.25;;;16.81;86.68
11268;BME280;49397;47.474;9.416;2022-09-09T12:04:10;95330.59;;;17.10;88.50
11268;BME280;49397;47.474;9.416;2022-09-09T12:06:48;95334.13;;;17.42;88.62
11268;BME280;49397;47.474;9.416;2022-09-09T12:14:43;95336.66;;;17.66;83.44
11268;BME280;49397;47.474;9.416;2022-09-09T12:19:41;95335.94;;;17.69;86.59
11268;BME280;49397;47.474;9.416;2022-09-09T12:24:54;95318.53;;;18.53;82.88
11268;BME280;49397;47.474;9.416;2022-09-09T12:27:38;95322.56;;;18.59;78.50
11268;BME280;49397;47.474;9.416;2022-09-09T12:30:12;95317.09;;;18.40;80.54
11268;BME280;49397;47.474;9.416;2022-09-09T12:32:39;95312.22;;;19.39;79.13
11268;BME280;49397;47.474;9.416;2022-09-09T12:35:34;95306.03;;;19.72;71.68
11268;BME280;49397;47.474;9.416;2022-09-09T12:38:02;95299.31;;;19.43;71.94
11268;BME280;49397;47.474;9.416;2022-09-09T12:40:33;95301.66;;;19.68;71.37
11268;BME280;49397;47.474;9.416;2022-09-09T12:43:21;95300.59;;;19.27;69.77
11268;BME280;49397;47.474;9.416;2022-09-09T12:45:49;95293.00;;;19.43;67.38
11268;BME280;49397;47.474;9.416;2022-09-09T12:48:27;95295.47;;;19.78;64.92
11268;BME280;49397;47.474;9.416;2022-09-09T12:50:53;95294.16;;;19.68;63.04
11268;BME280;49397;47.474;9.416;2022-09-09T12:53:30;95291.09;;;19.73;63.66
11268;BME280;49397;47.474;9.416;2022-09-09T12:56:08;95294.53;;;19.67;65.28
11268;BME280;49397;47.474;9.416;2022-09-09T12:58:38;95293.44;;;19.71;63.72
11268;BME280;49397;47.474;9.416;2022-09-09T13:01:06;95287.28;;;19.29;57.99
11268;BME280;49397;47.474;9.416;2022-09-09T13:03:43;95281.53;;;19.37;62.01
11268;BME280;49397;47.474;9.416;2022-09-09T13:06:19;95275.72;;;19.42;63.06
11268;BME280;49397;47.474;9.416;2022-09-09T13:08:45;95271.69;;;19.63;63.24
11268;BME280;49397;47.474;9.416;2022-09-09T13:11:37;95268.69;;;19.45;59.93
11268;BME280;49397;47.474;9.416;2022-09-09T13:14:01;95266.41;;;19.50;63.44
11268;BME280;49397;47.474;9.416;2022-09-09T13:16:30;95258.09;;;19.47;63.74
11268;BME280;49397;47.474;9.416;2022-09-09T13:18:58;95261.38;;;19.56;64.64
11268;BME280;49397;47.474;9.416;2022-09-09T13:21:35;95257.19;;;19.66;62.18
11268;BME280;49397;47.474;9.416;2022-09-09T13:24:01;95246.59;;;19.68;58.36
11268;BME280;49397;47.474;9.416;2022-09-09T13:26:30;95248.44;;;19.60;60.04
11268;BME280;49397;47.474;9.416;2022-09-09T13:29:08;95239.09;;;19.65;62.35
11268;BME280;49397;47.474;9.416;2022-09-09T13:31:40;95257.84;;;19.85;63.79
11268;BME280;49397;47.474;9.416;2022-09-09T13:34:34;95242.53;;;19.88;59.93
11268;BME280;49397;47.474;9.416;2022-09-09T13:37:00;95243.34;;;19.88;61.83
11268;BME280;49397;47.474;9.416;2022-09-09T13:39:36;95245.66;;;19.86;59.88
11268;BME280;49397;47.474;9.416;2022-09-09T13:42:02;95236.75;;;19.96;59.19
11268;BME280;49397;47.474;9.416;2022-09-09T13:44:31;95236.22;;;19.87;60.74
11268;BME280;49397;47.474;9.416;2022-09-09T13:47:20;95231.03;;;19.79;58.44
11268;BME280;49397;47.474;9.416;2022-09-09T13:49:48;95237.91;;;19.66;58.93
11268;BME280;49397;47.474;9.416;2022-09-09T13:52:18;95224.63;;;19.71;57.54
11268;BME280;49397;47.474;9.416;2022-09-09T13:54:51;95221.34;;;19.62;59.70
11268;BME280;49397;47.474;9.416;2022-09-09T13:57:24;95221.59;;;19.80;63.30
11268;BME280;49397;47.474;9.416;2022-09-09T13:59:51;95219.34;;;19.89;61.59
11268;BME280;49397;47.474;9.416;2022-09-09T14:02:17;95208.69;;;19.84;59.37
11268;BME280;49397;47.474;9.416;2022-09-09T14:04:43;95209.16;;;19.93;59.83
11268;BME280;49397;47.474;9.416;2022-09-09T14:07:13;95206.78;;;19.91;56.83
11268;BME280;49397;47.474;9.416;2022-09-09T14:09:39;95202.41;;;19.87;56.76
11268;BME280;49397;47.474;9.416;2022-09-09T14:12:11;95207.81;;;19.80;57.52
11268;BME280;49397;47.474;9.416;2022-09-09T14:14:37;95194.38;;;19.75;60.43
11268;BME280;49397;47.474;9.416;2022-09-09T14:17:03;95198.22;;;19.96;60.41
11268;BME280;49397;47.474;9.416;2022-09-09T14:19:29;95187.03;;;19.82;59.95
11268;BME280;49397;47.474;9.416;2022-09-09T14:21:56;95197.63;;;19.80;59.68
11268;BME280;49397;47.474;9.416;2022-09-09T14:24:22;95195.31;;;19.86;57.92
11268;BME280;49397;47.474;9.416;2022-09-09T14:26:48;95183.16;;;19.87;58.53
11268;BME280;49397;47.474;9.416;2022-09-09T14:29:13;95193.84;;;19.95;59.39
11268;BME280;49397;47.474;9.416;2022-09-09T14:31:39;95186.72;;;19.91;58.68
11268;BME280;49397;47.474;9.416;2022-09-09T14:34:04;95185.53;;;19.92;59.47
11268;BME280;49397;47.474;9.416;2022-09-09T14:36:31;95190.19;;;20.14;58.42
11268;BME280;49397;47.474;9.416;2022-09-09T14:38:57;95193.09;;;20.31;60.08
11268;BME280;49397;47.474;9.416;2022-09-09T14:41:23;95189.63;;;20.38;59.90
11268;BME280;49397;47.474;9.416;2022-09-09T14:43:50;95195.47;;;20.29;56.22
11268;BME280;49397;47.474;9.416;2022-09-09T14:46:18;95190.25;;;20.21;56.12
11268;BME280;49397;47.474;9.416;2022-09-09T14:48:44;95190.88;;;20.11;56.74
11268;BME280;49397;47.474;9.416;2022-09-09T14:51:13;95185.63;;;19.99;56.18
11268;BME280;49397;47.474;9.416;2022-09-09T14:53:41;95191.53;;;19.97;56.99
11268;BME280;49397;47.474;9.416;2022-09-09T14:56:12;95198.28;;;20.03;60.79
11268;BME280;49397;47.474;9.416;2022-09-09T14:58:38;95189.97;;;20.00;64.02
11268;BME280;49397;47.474;9.416;2022-09-09T15:01:05;95197.84;;;20.01;64.20
11268;BME280;49397;47.474;9.416;2022-09-09T15:03:31;95188.72;;;19.94;64.27
11268;BME280;49397;47.474;9.416;2022-09-09T15:05:56;95185.53;;;19.88;65.83
11268;BME280;49397;47.474;9.416;2022-09-09T15:08:24;95181.16;;;19.84;64.79
11268;BME280;49397;47.474;9.416;2022-09-09T15:10:50;95193.59;;;19.74;64.37
11268;BME280;49397;47.474;9.416;2022-09-09T15:13:15;95192.09;;;19.80;66.33
11268;BME280;49397;47.474;9.416;2022-09-09T15:15:42;95190.97;;;19.85;65.84